sensor_id;sensor_type;location;lat;lon;timestamp;pressure;altitude;pressure_sealevel;temperature;humidity
40994;BME280;26722;43.212;27.932;2022-12-07T00:00:48;55166.75;;;-146.72;73.40
40994;BME280;26722;43.212;27.932;2022-12-07T00:03:14;55164.66;;;-146.72;73.35
40994;BME280;26722;43.212;27.932;2022-12-07T00:05:39;55173.09;;;-146.72;73.39
40994;BME280;26722;43.212;27.932;2022-12-07T00:08:04;55185.75;;;-146.72;73.44
40994;BME280;26722;43.212;27.932;2022-12-07T00:10:30;55166.75;;;-146.72;73.33
40994;BME280;26722;43.212;27.932;2022-12-07T00:12:55;55175.22;;;-146.72;73.49
40994;BME280;26722;43.212;27.932;2022-12-07T00:15:21;55187.88;;;-146.72;73.42
40994;BME280;26722;43.212;27.932;2022-12-07T00:17:46;55179.44;;;-146.72;73.39
40994;BME280;26722;43.212;27.932;2022-12-07T00:20:11;55192.09;;;-146.72;73.26
40994;BME280;26722;43.212;27.932;2022-12-07T00:22:37;55179.44;;;-146.72;73.17
40994;BME280;26722;43.212;27.932;2022-12-07T00:25:02;55179.44;;;-146.72;73.17
40994;BME280;26722;43.212;27.932;2022-12-07T00:27:28;55179.44;;;-146.72;73.25
40994;BME280;26722;43.212;27.932;2022-12-07T00:29:53;55183.66;;;-146.72;72.91
40994;BME280;26722;43.212;27.932;2022-12-07T00:32:19;55196.31;;;-146.72;73.06
40994;BME280;26722;43.212;27.932;2022-12-07T00:34:44;55175.22;;;-146.72;72.83
40994;BME280;26722;43.212;27.932;2022-12-07T00:37:09;55154.09;;;-146.72;72.73
40994;BME280;26722;43.212;27.932;2022-12-07T00:39:35;55185.75;;;-146.72;72.86
40994;BME280;26722;43.212;27.932;2022-12-07T00:42:00;55185.75;;;-146.72;72.86
40994;BME280;26722;43.212;27.932;2022-12-07T00:44:26;55181.53;;;-146.72;72.88
40994;BME280;26722;43.212;27.932;2022-12-07T00:46:51;55190.00;;;-146.72;72.85
40994;BME280;26722;43.212;27.932;2022-12-07T00:49:17;55175.22;;;-146.72;72.69
40994;BME280;26722;43.212;27.932;2022-12-07T00:51:42;55192.09;;;-146.72;72.71
40994;BME280;26722;43.212;27.932;2022-12-07T00:54:07;55170.97;;;-146.72;72.83
40994;BME280;26722;43.212;27.932;2022-12-07T00:56:33;55166.75;;;-146.72;72.90
40994;BME280;26722;43.212;27.932;2022-12-07T00:59:01;55192.09;;;-146.72;72.77
40994;BME280;26722;43.212;27.932;2022-12-07T01:01:29;55166.75;;;-146.72;72.62
40994;BME280;26722;43.212;27.932;2022-12-07T01:03:55;55183.66;;;-146.72;72.26
40994;BME280;26722;43.212;27.932;2022-12-07T01:06:22;55187.88;;;-146.72;72.10
40994;BME280;26722;43.212;27.932;2022-12-07T01:08:48;55185.75;;;-146.72;71.87
40994;BME280;26722;43.212;27.932;2022-12-07T01:11:17;55192.09;;;-146.72;71.47
40994;BME280;26722;43.212;27.932;2022-12-07T01:13:43;55175.22;;;-146.72;71.60
40994;BME280;26722;43.212;27.932;2022-12-07T01:16:11;55168.88;;;-146.72;71.42
40994;BME280;26722;43.212;27.932;2022-12-07T01:18:39;55179.44;;;-146.72;71.47
40994;BME280;26722;43.212;27.932;2022-12-07T01:21:09;55170.97;;;-146.72;71.24
40994;BME280;26722;43.212;27.932;2022-12-07T01:23:36;55185.75;;;-146.72;71.07
40994;BME280;26722;43.212;27.932;2022-12-07T01:26:05;55175.22;;;-146.72;70.93
40994;BME280;26722;43.212;27.932;2022-12-07T01:28:31;55173.09;;;-146.72;71.08
40994;BME280;26722;43.212;27.932;2022-12-07T01:33:31;55175.22;;;-146.72;71.01
40994;BME280;26722;43.212;27.932;2022-12-07T01:36:05;55185.75;;;-146.72;70.70
40994;BME280;26722;43.212;27.932;2022-12-07T01:38:32;55190.00;;;-146.72;70.51
40994;BME280;26722;43.212;27.932;2022-12-07T01:40:59;55179.44;;;-146.72;70.45
40994;BME280;26722;43.212;27.932;2022-12-07T01:43:28;55170.97;;;-146.72;70.28
40994;BME280;26722;43.212;27.932;2022-12-07T01:45:54;55170.97;;;-146.72;70.51
40994;BME280;26722;43.212;27.932;2022-12-07T01:48:31;55181.53;;;-146.72;70.52
40994;BME280;26722;43.212;27.932;2022-12-07T01:51:02;55183.66;;;-146.72;70.72
40994;BME280;26722;43.212;27.932;2022-12-07T01:53:30;55209.00;;;-146.72;70.78
40994;BME280;26722;43.212;27.932;2022-12-07T01:55:58;55190.00;;;-146.72;70.65
40994;BME280;26722;43.212;27.932;2022-12-07T01:58:24;55198.44;;;-146.72;70.94
40994;BME280;26722;43.212;27.932;2022-12-07T02:00:50;55179.44;;;-146.72;71.04
40994;BME280;26722;43.212;27.932;2022-12-07T02:05:46;55183.66;;;-146.72;70.87
40994;BME280;26722;43.212;27.932;2022-12-07T02:08:12;55177.31;;;-146.72;71.03
40994;BME280;26722;43.212;27.932;2022-12-07T02:10:38;55196.31;;;-146.72;71.11
40994;BME280;26722;43.212;27.932;2022-12-07T02:13:08;55164.66;;;-146.72;71.13
40994;BME280;26722;43.212;27.932;2022-12-07T02:18:47;55185.75;;;-146.72;71.74
40994;BME280;26722;43.212;27.932;2022-12-07T02:24:05;55204.75;;;-146.72;72.08
40994;BME280;26722;43.212;27.932;2022-12-07T02:32:16;55185.75;;;-146.72;71.58
40994;BME280;26722;43.212;27.932;2022-12-07T02:35:11;55175.22;;;-146.72;71.68
40994;BME280;26722;43.212;27.932;2022-12-07T02:40:51;55187.88;;;-146.72;72.19
40994;BME280;26722;43.212;27.932;2022-12-07T02:43:24;55202.66;;;-146.72;72.21
40994;BME280;26722;43.212;27.932;2022-12-07T02:45:52;55179.44;;;-146.72;71.87
40994;BME280;26722;43.212;27.932;2022-12-07T02:48:19;55187.88;;;-146.72;71.62
40994;BME280;26722;43.212;27.932;2022-12-07T02:50:50;55179.44;;;-146.72;71.63
40994;BME280;26722;43.212;27.932;2022-12-07T02:53:40;55194.22;;;-146.72;71.65
40994;BME280;26722;43.212;27.932;2022-12-07T03:08:01;55179.44;;;-146.72;71.44
40994;BME280;26722;43.212;27.932;2022-12-07T03:13:25;55183.66;;;-146.72;71.48
40994;BME280;26722;43.212;27.932;2022-12-07T03:18:31;55196.31;;;-146.72;71.60
40994;BME280;26722;43.212;27.932;2022-12-07T03:21:02;55202.66;;;-146.72;71.42
40994;BME280;26722;43.212;27.932;2022-12-07T03:23:32;55185.75;;;-146.72;71.49
40994;BME280;26722;43.212;27.932;2022-12-07T03:26:00;55196.31;;;-146.72;71.37
40994;BME280;26722;43.212;27.932;2022-12-07T03:28:32;55192.09;;;-146.72;71.13
40994;BME280;26722;43.212;27.932;2022-12-07T03:39:27;55196.31;;;-146.72;70.90
40994;BME280;26722;43.212;27.932;2022-12-07T03:41:55;55192.09;;;-146.72;70.72
40994;BME280;26722;43.212;27.932;2022-12-07T03:44:22;55196.31;;;-146.72;70.88
40994;BME280;26722;43.212;27.932;2022-12-07T03:49:46;55183.66;;;-146.72;70.82
40994;BME280;26722;43.212;27.932;2022-12-07T03:52:32;55187.88;;;-146.72;70.83
40994;BME280;26722;43.212;27.932;2022-12-07T03:55:28;55204.75;;;-146.72;70.78
40994;BME280;26722;43.212;27.932;2022-12-07T03:57:55;55215.31;;;-146.72;71.02
40994;BME280;26722;43.212;27.932;2022-12-07T04:00:23;55206.88;;;-146.72;71.02
40994;BME280;26722;43.212;27.932;2022-12-07T04:02:52;55206.88;;;-146.72;71.16
40994;BME280;26722;43.212;27.932;2022-12-07T04:05:17;55217.44;;;-146.72;71.48
40994;BME280;26722;43.212;27.932;2022-12-07T04:07:43;55196.31;;;-146.72;71.54
40994;BME280;26722;43.212;27.932;2022-12-07T04:10:09;55200.53;;;-146.72;71.61
40994;BME280;26722;43.212;27.932;2022-12-07T04:12:35;55202.66;;;-146.72;71.67
40994;BME280;26722;43.212;27.932;2022-12-07T04:15:00;55202.66;;;-146.72;71.81
40994;BME280;26722;43.212;27.932;2022-12-07T04:17:25;55219.53;;;-146.72;71.76
40994;BME280;26722;43.212;27.932;2022-12-07T04:19:51;55194.22;;;-146.72;71.87
40994;BME280;26722;43.212;27.932;2022-12-07T04:22:16;55200.53;;;-146.72;72.09
40994;BME280;26722;43.212;27.932;2022-12-07T04:24:42;55204.75;;;-146.72;72.06
40994;BME280;26722;43.212;27.932;2022-12-07T04:27:07;55204.75;;;-146.72;72.10
40994;BME280;26722;43.212;27.932;2022-12-07T04:29:32;55204.75;;;-146.72;72.28
40994;BME280;26722;43.212;27.932;2022-12-07T04:31:58;55200.53;;;-146.72;72.20
40994;BME280;26722;43.212;27.932;2022-12-07T04:34:23;55198.44;;;-146.72;72.45
40994;BME280;26722;43.212;27.932;2022-12-07T04:36:49;55202.66;;;-146.72;72.42
40994;BME280;26722;43.212;27.932;2022-12-07T04:39:29;55204.75;;;-146.72;72.60
40994;BME280;26722;43.212;27.932;2022-12-07T04:41:55;55177.31;;;-146.72;72.67
40994;BME280;26722;43.212;27.932;2022-12-07T04:44:21;55198.44;;;-146.72;72.82
40994;BME280;26722;43.212;27.932;2022-12-07T04:46:47;55204.75;;;-146.72;72.93
40994;BME280;26722;43.212;27.932;2022-12-07T04:49:13;55202.66;;;-146.72;73.11
40994;BME280;26722;43.212;27.932;2022-12-07T04:51:39;55228.00;;;-146.72;73.25
40994;BME280;26722;43.212;27.932;2022-12-07T04:54:04;55228.00;;;-146.72;73.23
40994;BME280;26722;43.212;27.932;2022-12-07T04:56:30;55204.75;;;-146.72;73.04
40994;BME280;26722;43.212;27.932;2022-12-07T04:58:55;55196.31;;;-146.72;73.11
40994;BME280;26722;43.212;27.932;2022-12-07T05:01:22;55209.00;;;-146.72;73.02
40994;BME280;26722;43.212;27.932;2022-12-07T05:03:48;55190.00;;;-146.72;72.89
40994;BME280;26722;43.212;27.932;2022-12-07T05:06:14;55211.09;;;-146.72;72.90
40994;BME280;26722;43.212;27.932;2022-12-07T05:08:40;55213.22;;;-146.72;72.72
40994;BME280;26722;43.212;27.932;2022-12-07T05:11:07;55202.66;;;-146.72;72.91
40994;BME280;26722;43.212;27.932;2022-12-07T05:13:33;55225.88;;;-146.72;72.60
40994;BME280;26722;43.212;27.932;2022-12-07T05:15:59;55200.53;;;-146.72;72.69
40994;BME280;26722;43.212;27.932;2022-12-07T05:18:24;55215.31;;;-146.72;72.44
40994;BME280;26722;43.212;27.932;2022-12-07T05:20:50;55206.88;;;-146.72;72.66
40994;BME280;26722;43.212;27.932;2022-12-07T05:23:16;55196.31;;;-146.72;72.52
40994;BME280;26722;43.212;27.932;2022-12-07T05:25:42;55225.88;;;-146.72;72.54
40994;BME280;26722;43.212;27.932;2022-12-07T05:28:07;55211.09;;;-146.72;72.82
40994;BME280;26722;43.212;27.932;2022-12-07T05:30:33;55217.44;;;-146.72;73.12
40994;BME280;26722;43.212;27.932;2022-12-07T05:32:58;55213.22;;;-146.72;73.27
40994;BME280;26722;43.212;27.932;2022-12-07T05:35:24;55190.00;;;-146.72;73.38
40994;BME280;26722;43.212;27.932;2022-12-07T05:37:50;55219.53;;;-146.72;73.73
40994;BME280;26722;43.212;27.932;2022-12-07T05:40:16;55225.88;;;-146.72;73.67
40994;BME280;26722;43.212;27.932;2022-12-07T05:42:42;55236.44;;;-146.72;73.37
40994;BME280;26722;43.212;27.932;2022-12-07T05:45:08;55215.31;;;-146.72;73.39
40994;BME280;26722;43.212;27.932;2022-12-07T05:47:34;55209.00;;;-146.72;73.08
40994;BME280;26722;43.212;27.932;2022-12-07T05:50:00;55230.09;;;-146.72;72.88
40994;BME280;26722;43.212;27.932;2022-12-07T05:52:25;55213.22;;;-146.72;72.51
40994;BME280;26722;43.212;27.932;2022-12-07T05:54:51;55185.75;;;-146.72;72.22
40994;BME280;26722;43.212;27.932;2022-12-07T05:57:18;55213.22;;;-146.72;72.20
40994;BME280;26722;43.212;27.932;2022-12-07T05:59:43;55198.44;;;-146.72;72.42
40994;BME280;26722;43.212;27.932;2022-12-07T06:02:11;55209.00;;;-146.72;72.51
40994;BME280;26722;43.212;27.932;2022-12-07T06:04:42;55251.22;;;-146.72;72.53
40994;BME280;26722;43.212;27.932;2022-12-07T06:07:09;55204.75;;;-146.72;72.08
40994;BME280;26722;43.212;27.932;2022-12-07T06:09:35;55204.75;;;-146.72;72.15
40994;BME280;26722;43.212;27.932;2022-12-07T06:12:01;55219.53;;;-146.72;72.29
40994;BME280;26722;43.212;27.932;2022-12-07T06:14:45;55200.53;;;-146.72;72.19
40994;BME280;26722;43.212;27.932;2022-12-07T06:17:11;55221.66;;;-146.72;72.04
40994;BME280;26722;43.212;27.932;2022-12-07T06:19:38;55200.53;;;-146.72;72.05
40994;BME280;26722;43.212;27.932;2022-12-07T06:22:03;55223.78;;;-146.72;71.97
40994;BME280;26722;43.212;27.932;2022-12-07T06:24:30;55209.00;;;-146.72;71.68
40994;BME280;26722;43.212;27.932;2022-12-07T06:26:56;55217.44;;;-146.72;71.64
40994;BME280;26722;43.212;27.932;2022-12-07T06:29:22;55217.44;;;-146.72;71.50
40994;BME280;26722;43.212;27.932;2022-12-07T06:31:47;55196.31;;;-146.72;71.52
40994;BME280;26722;43.212;27.932;2022-12-07T06:34:19;55200.53;;;-146.72;71.64
40994;BME280;26722;43.212;27.932;2022-12-07T06:36:45;55200.53;;;-146.72;71.69
40994;BME280;26722;43.212;27.932;2022-12-07T06:39:11;55196.31;;;-146.72;71.72
40994;BME280;26722;43.212;27.932;2022-12-07T06:41:37;55204.75;;;-146.72;71.74
40994;BME280;26722;43.212;27.932;2022-12-07T06:44:04;55183.66;;;-146.72;71.87
40994;BME280;26722;43.212;27.932;2022-12-07T06:46:30;55179.44;;;-146.72;71.22
40994;BME280;26722;43.212;27.932;2022-12-07T06:48:55;55183.66;;;-146.72;70.79
40994;BME280;26722;43.212;27.932;2022-12-07T06:51:21;55175.22;;;-146.72;70.45
40994;BME280;26722;43.212;27.932;2022-12-07T06:53:47;55200.53;;;-146.72;70.25
40994;BME280;26722;43.212;27.932;2022-12-07T06:56:12;55181.53;;;-146.72;70.02
40994;BME280;26722;43.212;27.932;2022-12-07T06:58:39;55194.22;;;-146.72;69.73
40994;BME280;26722;43.212;27.932;2022-12-07T07:01:15;55187.88;;;-146.72;69.17
40994;BME280;26722;43.212;27.932;2022-12-07T07:03:42;55179.44;;;-146.72;68.90
40994;BME280;26722;43.212;27.932;2022-12-07T07:06:08;55192.09;;;-146.72;68.65
40994;BME280;26722;43.212;27.932;2022-12-07T07:08:35;55175.22;;;-146.72;67.98
40994;BME280;26722;43.212;27.932;2022-12-07T07:11:00;55168.88;;;-146.72;67.66
40994;BME280;26722;43.212;27.932;2022-12-07T07:13:26;55175.22;;;-146.72;66.96
40994;BME280;26722;43.212;27.932;2022-12-07T07:15:52;55162.53;;;-146.72;66.29
40994;BME280;26722;43.212;27.932;2022-12-07T07:18:17;55170.97;;;-146.72;65.50
40994;BME280;26722;43.212;27.932;2022-12-07T07:20:43;55166.75;;;-146.72;65.25
40994;BME280;26722;43.212;27.932;2022-12-07T07:23:08;55151.97;;;-146.72;65.33
40994;BME280;26722;43.212;27.932;2022-12-07T07:25:33;55137.22;;;-146.72;65.14
40994;BME280;26722;43.212;27.932;2022-12-07T07:27:59;55166.75;;;-146.72;64.58
40994;BME280;26722;43.212;27.932;2022-12-07T07:30:24;55154.09;;;-146.72;64.00
40994;BME280;26722;43.212;27.932;2022-12-07T07:32:50;55158.31;;;-146.72;63.73
40994;BME280;26722;43.212;27.932;2022-12-07T07:35:15;55149.88;;;-146.72;63.29
40994;BME280;26722;43.212;27.932;2022-12-07T07:37:41;55147.75;;;-146.72;62.91
40994;BME280;26722;43.212;27.932;2022-12-07T07:40:08;55158.31;;;-146.72;62.78
40994;BME280;26722;43.212;27.932;2022-12-07T07:42:34;55137.22;;;-146.72;62.45
40994;BME280;26722;43.212;27.932;2022-12-07T07:44:59;55156.22;;;-146.72;62.23
40994;BME280;26722;43.212;27.932;2022-12-07T07:47:24;55122.44;;;-146.72;62.29
40994;BME280;26722;43.212;27.932;2022-12-07T07:49:50;55141.44;;;-146.72;61.98
40994;BME280;26722;43.212;27.932;2022-12-07T07:52:15;55122.44;;;-146.72;61.19
40994;BME280;26722;43.212;27.932;2022-12-07T07:54:41;55139.31;;;-146.72;60.95
40994;BME280;26722;43.212;27.932;2022-12-07T07:57:06;55137.22;;;-146.72;60.81
40994;BME280;26722;43.212;27.932;2022-12-07T07:59:31;55120.31;;;-146.72;60.14
40994;BME280;26722;43.212;27.932;2022-12-07T08:01:57;55139.31;;;-146.72;60.00
40994;BME280;26722;43.212;27.932;2022-12-07T08:04:22;55126.66;;;-146.72;59.90
40994;BME280;26722;43.212;27.932;2022-12-07T08:06:48;55116.09;;;-146.72;59.93
40994;BME280;26722;43.212;27.932;2022-12-07T08:09:13;55128.75;;;-146.72;59.24
40994;BME280;26722;43.212;27.932;2022-12-07T08:11:39;55122.44;;;-146.72;58.97
40994;BME280;26722;43.212;27.932;2022-12-07T08:14:04;55124.53;;;-146.72;58.67
40994;BME280;26722;43.212;27.932;2022-12-07T08:16:30;55122.44;;;-146.72;58.73
40994;BME280;26722;43.212;27.932;2022-12-07T08:18:55;55113.97;;;-146.72;58.34
40994;BME280;26722;43.212;27.932;2022-12-07T08:21:21;55084.44;;;-146.72;58.60
40994;BME280;26722;43.212;27.932;2022-12-07T08:23:46;55137.22;;;-146.72;58.08
40994;BME280;26722;43.212;27.932;2022-12-07T08:26:14;55120.31;;;-146.72;58.29
40994;BME280;26722;43.212;27.932;2022-12-07T08:28:40;55116.09;;;-146.72;58.28
40994;BME280;26722;43.212;27.932;2022-12-07T08:31:10;55120.31;;;-146.72;57.83
40994;BME280;26722;43.212;27.932;2022-12-07T08:33:36;55116.09;;;-146.72;57.89
40994;BME280;26722;43.212;27.932;2022-12-07T08:36:06;55132.97;;;-146.72;58.27
40994;BME280;26722;43.212;27.932;2022-12-07T08:38:35;55105.53;;;-146.72;58.04
40994;BME280;26722;43.212;27.932;2022-12-07T08:41:00;55107.66;;;-146.72;57.96
40994;BME280;26722;43.212;27.932;2022-12-07T08:43:26;55124.53;;;-146.72;57.86
40994;BME280;26722;43.212;27.932;2022-12-07T08:49:05;55107.66;;;-146.72;57.22
40994;BME280;26722;43.212;27.932;2022-12-07T08:51:33;55103.44;;;-146.72;56.57
40994;BME280;26722;43.212;27.932;2022-12-07T08:54:01;55116.09;;;-146.72;55.75
40994;BME280;26722;43.212;27.932;2022-12-07T08:56:28;55099.19;;;-146.72;55.49
40994;BME280;26722;43.212;27.932;2022-12-07T08:58:53;55094.97;;;-146.72;55.00
40994;BME280;26722;43.212;27.932;2022-12-07T09:01:19;55082.31;;;-146.72;54.85
40994;BME280;26722;43.212;27.932;2022-12-07T09:03:45;55094.97;;;-146.72;54.98
40994;BME280;26722;43.212;27.932;2022-12-07T09:06:10;55082.31;;;-146.72;55.08
40994;BME280;26722;43.212;27.932;2022-12-07T09:08:41;55109.75;;;-146.72;55.41
40994;BME280;26722;43.212;27.932;2022-12-07T09:11:08;55101.31;;;-146.72;55.50
40994;BME280;26722;43.212;27.932;2022-12-07T09:13:34;55088.66;;;-146.72;55.67
40994;BME280;26722;43.212;27.932;2022-12-07T09:15:59;55101.31;;;-146.72;55.94
40994;BME280;26722;43.212;27.932;2022-12-07T09:18:25;55105.53;;;-146.72;55.87
40994;BME280;26722;43.212;27.932;2022-12-07T09:20:51;55111.88;;;-146.72;56.20
40994;BME280;26722;43.212;27.932;2022-12-07T09:23:16;55107.66;;;-146.72;56.43
40994;BME280;26722;43.212;27.932;2022-12-07T09:25:42;55122.44;;;-146.72;56.72
40994;BME280;26722;43.212;27.932;2022-12-07T09:28:07;55086.53;;;-146.72;56.73
40994;BME280;26722;43.212;27.932;2022-12-07T09:30:33;55097.09;;;-146.72;56.84
40994;BME280;26722;43.212;27.932;2022-12-07T09:32:59;55113.97;;;-146.72;57.05
40994;BME280;26722;43.212;27.932;2022-12-07T09:35:24;55111.88;;;-146.72;57.01
40994;BME280;26722;43.212;27.932;2022-12-07T09:37:50;55111.88;;;-146.72;57.25
40994;BME280;26722;43.212;27.932;2022-12-07T09:40:17;55099.19;;;-146.72;56.18
40994;BME280;26722;43.212;27.932;2022-12-07T09:42:47;55118.19;;;-146.72;55.98
40994;BME280;26722;43.212;27.932;2022-12-07T09:45:19;55103.44;;;-146.72;56.31
40994;BME280;26722;43.212;27.932;2022-12-07T09:47:46;55103.44;;;-146.72;56.25
40994;BME280;26722;43.212;27.932;2022-12-07T09:50:14;55092.88;;;-146.72;56.26
40994;BME280;26722;43.212;27.932;2022-12-07T09:52:41;55086.53;;;-146.72;56.94
40994;BME280;26722;43.212;27.932;2022-12-07T09:55:12;55092.88;;;-146.72;57.38
40994;BME280;26722;43.212;27.932;2022-12-07T09:57:39;55103.44;;;-146.72;57.34
40994;BME280;26722;43.212;27.932;2022-12-07T10:00:14;55116.09;;;-146.72;57.83
40994;BME280;26722;43.212;27.932;2022-12-07T10:02:43;55124.53;;;-146.72;57.85
40994;BME280;26722;43.212;27.932;2022-12-07T10:05:15;55122.44;;;-146.72;58.11
40994;BME280;26722;43.212;27.932;2022-12-07T10:07:42;55124.53;;;-146.72;58.37
40994;BME280;26722;43.212;27.932;2022-12-07T10:10:20;55088.66;;;-146.72;58.75
40994;BME280;26722;43.212;27.932;2022-12-07T10:12:57;55111.88;;;-146.72;59.01
40994;BME280;26722;43.212;27.932;2022-12-07T10:15:23;55126.66;;;-146.72;58.98
40994;BME280;26722;43.212;27.932;2022-12-07T10:17:51;55118.19;;;-146.72;59.08
40994;BME280;26722;43.212;27.932;2022-12-07T10:20:25;55122.44;;;-146.72;59.42
40994;BME280;26722;43.212;27.932;2022-12-07T10:23:15;55103.44;;;-146.72;59.85
40994;BME280;26722;43.212;27.932;2022-12-07T10:25:41;55107.66;;;-146.72;59.73
40994;BME280;26722;43.212;27.932;2022-12-07T10:30:45;55103.44;;;-146.72;58.90
40994;BME280;26722;43.212;27.932;2022-12-07T10:33:28;55103.44;;;-146.72;58.93
40994;BME280;26722;43.212;27.932;2022-12-07T10:35:54;55109.75;;;-146.72;58.38
40994;BME280;26722;43.212;27.932;2022-12-07T10:38:20;55103.44;;;-146.72;57.96
40994;BME280;26722;43.212;27.932;2022-12-07T10:40:48;55097.09;;;-146.72;57.89
40994;BME280;26722;43.212;27.932;2022-12-07T10:43:27;55107.66;;;-146.72;57.78
40994;BME280;26722;43.212;27.932;2022-12-07T10:46:35;55092.88;;;-146.72;57.64
40994;BME280;26722;43.212;27.932;2022-12-07T11:00:42;55103.44;;;-146.72;56.21
40994;BME280;26722;43.212;27.932;2022-12-07T11:03:23;55105.53;;;-146.72;55.93
40994;BME280;26722;43.212;27.932;2022-12-07T11:11:34;55084.44;;;-146.72;55.44
40994;BME280;26722;43.212;27.932;2022-12-07T11:22:32;55101.31;;;-146.72;55.77
40994;BME280;26722;43.212;27.932;2022-12-07T11:25:27;55094.97;;;-146.72;55.96
40994;BME280;26722;43.212;27.932;2022-12-07T11:38:47;55092.88;;;-146.72;58.37
40994;BME280;26722;43.212;27.932;2022-12-07T11:41:27;55103.44;;;-146.72;58.88
40994;BME280;26722;43.212;27.932;2022-12-07T11:44:07;55088.66;;;-146.72;59.34
40994;BME280;26722;43.212;27.932;2022-12-07T11:46:45;55094.97;;;-146.72;59.39
40994;BME280;26722;43.212;27.932;2022-12-07T11:49:31;55103.44;;;-146.72;59.46
40994;BME280;26722;43.212;27.932;2022-12-07T11:52:04;55099.19;;;-146.72;58.89
40994;BME280;26722;43.212;27.932;2022-12-07T11:54:42;55105.53;;;-146.72;57.34
40994;BME280;26722;43.212;27.932;2022-12-07T11:57:22;55120.31;;;-146.72;57.25
40994;BME280;26722;43.212;27.932;2022-12-07T11:59:52;55103.44;;;-146.72;57.11
40994;BME280;26722;43.212;27.932;2022-12-07T12:02:46;55109.75;;;-146.72;57.22
40994;BME280;26722;43.212;27.932;2022-12-07T12:05:32;55122.44;;;-146.72;57.18
40994;BME280;26722;43.212;27.932;2022-12-07T12:08:21;55090.75;;;-146.72;57.38
40994;BME280;26722;43.212;27.932;2022-12-07T12:10:56;55111.88;;;-146.72;58.37
40994;BME280;26722;43.212;27.932;2022-12-07T12:22:15;55154.09;;;-146.72;58.40
40994;BME280;26722;43.212;27.932;2022-12-07T12:24:45;55101.31;;;-146.72;58.50
40994;BME280;26722;43.212;27.932;2022-12-07T12:27:25;55103.44;;;-146.72;58.51
40994;BME280;26722;43.212;27.932;2022-12-07T12:29:59;55105.53;;;-146.72;58.23
40994;BME280;26722;43.212;27.932;2022-12-07T12:32:40;55107.66;;;-146.72;57.35
40994;BME280;26722;43.212;27.932;2022-12-07T12:37:52;55092.88;;;-146.72;56.78
40994;BME280;26722;43.212;27.932;2022-12-07T12:45:29;55086.53;;;-146.72;56.39
40994;BME280;26722;43.212;27.932;2022-12-07T12:48:00;55107.66;;;-146.72;55.92
40994;BME280;26722;43.212;27.932;2022-12-07T12:53:21;55116.09;;;-146.72;56.15
40994;BME280;26722;43.212;27.932;2022-12-07T13:00:46;55082.31;;;-146.72;56.94
40994;BME280;26722;43.212;27.932;2022-12-07T13:03:26;55099.19;;;-146.72;56.99
40994;BME280;26722;43.212;27.932;2022-12-07T13:08:51;55097.09;;;-146.72;55.97
40994;BME280;26722;43.212;27.932;2022-12-07T13:11:29;55099.19;;;-146.72;56.31
40994;BME280;26722;43.212;27.932;2022-12-07T13:16:59;55099.19;;;-146.72;56.56
40994;BME280;26722;43.212;27.932;2022-12-07T13:24:59;55103.44;;;-146.72;57.76
40994;BME280;26722;43.212;27.932;2022-12-07T13:27:28;55105.53;;;-146.72;59.37
40994;BME280;26722;43.212;27.932;2022-12-07T13:29:56;55107.66;;;-146.72;60.54
40994;BME280;26722;43.212;27.932;2022-12-07T13:32:25;55118.19;;;-146.72;61.33
40994;BME280;26722;43.212;27.932;2022-12-07T13:34:50;55109.75;;;-146.72;61.84
40994;BME280;26722;43.212;27.932;2022-12-07T13:37:28;55122.44;;;-146.72;62.34
40994;BME280;26722;43.212;27.932;2022-12-07T13:42:32;55149.88;;;-146.72;63.68
40994;BME280;26722;43.212;27.932;2022-12-07T13:44:59;55120.31;;;-146.72;64.40
40994;BME280;26722;43.212;27.932;2022-12-07T13:47:41;55147.75;;;-146.72;65.38
40994;BME280;26722;43.212;27.932;2022-12-07T13:50:31;55141.44;;;-146.72;66.43
40994;BME280;26722;43.212;27.932;2022-12-07T13:52:59;55141.44;;;-146.72;66.94
40994;BME280;26722;43.212;27.932;2022-12-07T13:55:25;55116.09;;;-146.72;67.43
40994;BME280;26722;43.212;27.932;2022-12-07T13:57:53;55141.44;;;-146.72;67.78
40994;BME280;26722;43.212;27.932;2022-12-07T14:00:26;55149.88;;;-146.72;68.00
40994;BME280;26722;43.212;27.932;2022-12-07T14:02:57;55145.66;;;-146.72;67.87
40994;BME280;26722;43.212;27.932;2022-12-07T14:05:29;55139.31;;;-146.72;68.38
40994;BME280;26722;43.212;27.932;2022-12-07T14:12:59;55137.22;;;-146.72;68.56
40994;BME280;26722;43.212;27.932;2022-12-07T14:15:33;55160.44;;;-146.72;68.64
40994;BME280;26722;43.212;27.932;2022-12-07T14:18:01;55147.75;;;-146.72;68.96
40994;BME280;26722;43.212;27.932;2022-12-07T14:20:40;55141.44;;;-146.72;69.20
40994;BME280;26722;43.212;27.932;2022-12-07T14:23:23;55147.75;;;-146.72;69.39
40994;BME280;26722;43.212;27.932;2022-12-07T14:25:52;55156.22;;;-146.72;69.40
40994;BME280;26722;43.212;27.932;2022-12-07T14:28:29;55156.22;;;-146.72;69.50
40994;BME280;26722;43.212;27.932;2022-12-07T14:30:56;55141.44;;;-146.72;69.32
40994;BME280;26722;43.212;27.932;2022-12-07T14:33:21;55154.09;;;-146.72;69.27
40994;BME280;26722;43.212;27.932;2022-12-07T14:35:47;55147.75;;;-146.72;69.11
40994;BME280;26722;43.212;27.932;2022-12-07T14:38:14;55151.97;;;-146.72;68.78
40994;BME280;26722;43.212;27.932;2022-12-07T14:40:40;55145.66;;;-146.72;68.28
40994;BME280;26722;43.212;27.932;2022-12-07T14:43:09;55141.44;;;-146.72;67.36
40994;BME280;26722;43.212;27.932;2022-12-07T14:45:36;55149.88;;;-146.72;67.07
40994;BME280;26722;43.212;27.932;2022-12-07T14:48:01;55154.09;;;-146.72;66.66
40994;BME280;26722;43.212;27.932;2022-12-07T14:50:26;55151.97;;;-146.72;66.02
40994;BME280;26722;43.212;27.932;2022-12-07T14:53:10;55141.44;;;-146.72;65.52